sensor_id;sensor_type;location;lat;lon;timestamp;pressure;altitude;pressure_sealevel;temperature;humidity
76132;BME280;64877;50.994;13.650;2022-12-28T00:00:55;100308.41;;;4.23;69.77
76132;BME280;64877;50.994;13.650;2022-12-28T00:03:28;100314.44;;;4.28;69.94
76132;BME280;64877;50.994;13.650;2022-12-28T00:05:54;100318.91;;;4.28;70.01
76132;BME280;64877;50.994;13.650;2022-12-28T00:08:19;100318.84;;;4.29;69.84
76132;BME280;64877;50.994;13.650;2022-12-28T00:10:44;100317.22;;;4.25;69.57
76132;BME280;64877;50.994;13.650;2022-12-28T00:13:10;100316.47;;;4.22;70.17
76132;BME280;64877;50.994;13.650;2022-12-28T00:15:36;100315.34;;;4.27;70.80
76132;BME280;64877;50.994;13.650;2022-12-28T00:18:01;100312.44;;;4.33;69.82
76132;BME280;64877;50.994;13.650;2022-12-28T00:20:26;100306.25;;;4.31;70.05
76132;BME280;64877;50.994;13.650;2022-12-28T00:22:52;100308.81;;;4.34;70.14
76132;BME280;64877;50.994;13.650;2022-12-28T00:25:17;100309.63;;;4.36;70.10
76132;BME280;64877;50.994;13.650;2022-12-28T00:27:42;100301.41;;;4.41;69.85
76132;BME280;64877;50.994;13.650;2022-12-28T00:30:08;100298.72;;;4.41;69.58
76132;BME280;64877;50.994;13.650;2022-12-28T00:32:34;100298.53;;;4.46;69.94
76132;BME280;64877;50.994;13.650;2022-12-28T00:34:59;100289.72;;;4.44;69.57
76132;BME280;64877;50.994;13.650;2022-12-28T00:37:25;100295.66;;;4.50;69.54
76132;BME280;64877;50.994;13.650;2022-12-28T00:39:50;100293.78;;;4.52;69.53
76132;BME280;64877;50.994;13.650;2022-12-28T00:42:15;100301.28;;;4.44;69.49
76132;BME280;64877;50.994;13.650;2022-12-28T00:44:41;100292.25;;;4.47;69.27
76132;BME280;64877;50.994;13.650;2022-12-28T00:47:06;100290.94;;;4.57;69.40
76132;BME280;64877;50.994;13.650;2022-12-28T00:49:32;100287.38;;;4.56;69.41
76132;BME280;64877;50.994;13.650;2022-12-28T00:51:57;100285.19;;;4.66;68.83
76132;BME280;64877;50.994;13.650;2022-12-28T00:54:22;100286.25;;;4.62;69.00
76132;BME280;64877;50.994;13.650;2022-12-28T00:56:48;100277.16;;;4.66;68.76
76132;BME280;64877;50.994;13.650;2022-12-28T00:59:13;100285.06;;;4.69;68.54
76132;BME280;64877;50.994;13.650;2022-12-28T01:01:39;100275.31;;;4.68;68.41
76132;BME280;64877;50.994;13.650;2022-12-28T01:04:04;100266.41;;;4.68;68.14
76132;BME280;64877;50.994;13.650;2022-12-28T01:06:30;100259.78;;;4.56;68.60
76132;BME280;64877;50.994;13.650;2022-12-28T01:08:55;100269.41;;;4.60;68.70
76132;BME280;64877;50.994;13.650;2022-12-28T01:11:27;100268.66;;;4.56;68.59
76132;BME280;64877;50.994;13.650;2022-12-28T01:13:55;100265.78;;;4.61;68.08
76132;BME280;64877;50.994;13.650;2022-12-28T01:16:32;100270.00;;;4.66;67.68
76132;BME280;64877;50.994;13.650;2022-12-28T01:19:00;100251.63;;;4.59;68.23
76132;BME280;64877;50.994;13.650;2022-12-28T01:21:28;100256.31;;;4.54;68.26
76132;BME280;64877;50.994;13.650;2022-12-28T01:23:57;100255.09;;;4.61;68.39
76132;BME280;64877;50.994;13.650;2022-12-28T01:26:24;100256.31;;;4.54;68.25
76132;BME280;64877;50.994;13.650;2022-12-28T01:28:50;100247.63;;;4.49;68.54
76132;BME280;64877;50.994;13.650;2022-12-28T01:31:17;100241.59;;;4.44;68.38
76132;BME280;64877;50.994;13.650;2022-12-28T01:33:43;100246.13;;;4.41;68.76
76132;BME280;64877;50.994;13.650;2022-12-28T01:36:15;100240.09;;;4.36;68.65
76132;BME280;64877;50.994;13.650;2022-12-28T01:38:41;100239.16;;;4.37;68.75
76132;BME280;64877;50.994;13.650;2022-12-28T01:41:08;100232.81;;;4.40;68.06
76132;BME280;64877;50.994;13.650;2022-12-28T01:46:38;100229.84;;;4.48;67.60
76132;BME280;64877;50.994;13.650;2022-12-28T01:51:40;100230.06;;;4.62;66.13
76132;BME280;64877;50.994;13.650;2022-12-28T01:54:08;100227.59;;;4.57;65.92
76132;BME280;64877;50.994;13.650;2022-12-28T01:56:33;100223.28;;;4.55;65.79
76132;BME280;64877;50.994;13.650;2022-12-28T01:58:59;100224.72;;;4.62;65.61
76132;BME280;64877;50.994;13.650;2022-12-28T02:01:24;100218.31;;;4.66;64.66
76132;BME280;64877;50.994;13.650;2022-12-28T02:03:51;100217.44;;;4.65;64.36
76132;BME280;64877;50.994;13.650;2022-12-28T02:06:16;100212.09;;;4.65;64.39
76132;BME280;64877;50.994;13.650;2022-12-28T02:08:49;100214.03;;;4.62;64.01
76132;BME280;64877;50.994;13.650;2022-12-28T02:11:18;100212.44;;;4.58;64.42
76132;BME280;64877;50.994;13.650;2022-12-28T02:13:46;100200.00;;;4.57;64.30
76132;BME280;64877;50.994;13.650;2022-12-28T02:16:13;100195.38;;;4.60;63.70
76132;BME280;64877;50.994;13.650;2022-12-28T02:18:39;100192.78;;;4.59;63.93
76132;BME280;64877;50.994;13.650;2022-12-28T02:29:19;100163.09;;;4.45;64.99
76132;BME280;64877;50.994;13.650;2022-12-28T02:32:12;100152.47;;;4.63;63.56
76132;BME280;64877;50.994;13.650;2022-12-28T02:34:54;100144.44;;;4.63;63.68
76132;BME280;64877;50.994;13.650;2022-12-28T02:37:48;100143.63;;;4.61;63.39
76132;BME280;64877;50.994;13.650;2022-12-28T02:40:28;100139.00;;;4.65;63.22
76132;BME280;64877;50.994;13.650;2022-12-28T02:42:56;100135.66;;;4.60;63.73
76132;BME280;64877;50.994;13.650;2022-12-28T02:45:42;100133.81;;;4.41;64.44
76132;BME280;64877;50.994;13.650;2022-12-28T02:48:46;100135.31;;;4.28;65.01
76132;BME280;64877;50.994;13.650;2022-12-28T03:00:20;100118.06;;;4.15;66.01
76132;BME280;64877;50.994;13.650;2022-12-28T03:03:15;100105.97;;;4.27;65.56
76132;BME280;64877;50.994;13.650;2022-12-28T03:11:16;100099.22;;;4.38;65.24
76132;BME280;64877;50.994;13.650;2022-12-28T03:13:58;100086.84;;;4.36;65.15
76132;BME280;64877;50.994;13.650;2022-12-28T03:16:36;100087.69;;;4.36;64.63
76132;BME280;64877;50.994;13.650;2022-12-28T03:19:27;100091.97;;;4.40;65.04
76132;BME280;64877;50.994;13.650;2022-12-28T03:22:13;100078.59;;;4.40;65.44
76132;BME280;64877;50.994;13.650;2022-12-28T03:25:04;100075.66;;;4.47;64.45
76132;BME280;64877;50.994;13.650;2022-12-28T03:27:50;100075.41;;;4.53;63.83
76132;BME280;64877;50.994;13.650;2022-12-28T03:30:35;100067.22;;;4.56;63.71
76132;BME280;64877;50.994;13.650;2022-12-28T03:33:22;100063.25;;;4.64;63.14
76132;BME280;64877;50.994;13.650;2022-12-28T03:35:56;100050.88;;;4.62;63.71
76132;BME280;64877;50.994;13.650;2022-12-28T03:44:37;100037.00;;;4.73;63.14
76132;BME280;64877;50.994;13.650;2022-12-28T03:47:10;100029.47;;;4.81;62.40
76132;BME280;64877;50.994;13.650;2022-12-28T03:49:37;100023.34;;;4.79;62.73
76132;BME280;64877;50.994;13.650;2022-12-28T03:52:04;100028.09;;;4.72;63.33
76132;BME280;64877;50.994;13.650;2022-12-28T03:54:30;100012.84;;;4.74;63.53
76132;BME280;64877;50.994;13.650;2022-12-28T03:56:56;100010.97;;;4.76;63.08
76132;BME280;64877;50.994;13.650;2022-12-28T03:59:21;100014.38;;;4.80;63.05
76132;BME280;64877;50.994;13.650;2022-12-28T04:01:46;100001.06;;;4.78;63.29
76132;BME280;64877;50.994;13.650;2022-12-28T04:04:12;100005.47;;;4.79;63.07
76132;BME280;64877;50.994;13.650;2022-12-28T04:06:37;100006.41;;;4.78;63.18
76132;BME280;64877;50.994;13.650;2022-12-28T04:09:03;99997.59;;;4.76;63.58
76132;BME280;64877;50.994;13.650;2022-12-28T04:11:29;99988.59;;;4.77;63.46
76132;BME280;64877;50.994;13.650;2022-12-28T04:13:54;99990.38;;;4.78;63.32
76132;BME280;64877;50.994;13.650;2022-12-28T04:16:20;99978.81;;;4.78;63.80
76132;BME280;64877;50.994;13.650;2022-12-28T04:18:45;99976.19;;;4.76;63.67
76132;BME280;64877;50.994;13.650;2022-12-28T04:21:12;99965.19;;;4.82;63.31
76132;BME280;64877;50.994;13.650;2022-12-28T04:23:37;99967.06;;;4.80;63.60
76132;BME280;64877;50.994;13.650;2022-12-28T04:26:06;99960.72;;;4.83;63.45
76132;BME280;64877;50.994;13.650;2022-12-28T04:28:32;99950.34;;;4.94;62.82
76132;BME280;64877;50.994;13.650;2022-12-28T04:30:59;99940.72;;;4.90;63.10
76132;BME280;64877;50.994;13.650;2022-12-28T04:33:25;99944.03;;;4.95;62.83
76132;BME280;64877;50.994;13.650;2022-12-28T04:35:51;99939.47;;;4.97;62.60
76132;BME280;64877;50.994;13.650;2022-12-28T04:38:16;99935.00;;;4.98;62.09
76132;BME280;64877;50.994;13.650;2022-12-28T04:40:42;99929.50;;;5.18;61.60
76132;BME280;64877;50.994;13.650;2022-12-28T04:43:08;99927.97;;;4.95;63.27
76132;BME280;64877;50.994;13.650;2022-12-28T04:45:33;99934.81;;;5.01;62.83
76132;BME280;64877;50.994;13.650;2022-12-28T04:47:59;99933.75;;;5.05;62.50
76132;BME280;64877;50.994;13.650;2022-12-28T04:50:25;99932.38;;;4.96;63.22
76132;BME280;64877;50.994;13.650;2022-12-28T04:52:52;99930.28;;;5.03;62.78
76132;BME280;64877;50.994;13.650;2022-12-28T04:55:17;99922.50;;;4.98;62.76
76132;BME280;64877;50.994;13.650;2022-12-28T04:57:44;99924.94;;;5.03;62.59
76132;BME280;64877;50.994;13.650;2022-12-28T05:00:10;99915.31;;;4.99;63.52
76132;BME280;64877;50.994;13.650;2022-12-28T05:02:36;99917.19;;;4.97;63.26
76132;BME280;64877;50.994;13.650;2022-12-28T05:05:02;99910.44;;;5.07;62.68
76132;BME280;64877;50.994;13.650;2022-12-28T05:07:27;99914.13;;;5.04;63.13
76132;BME280;64877;50.994;13.650;2022-12-28T05:09:53;99916.31;;;4.96;63.53
76132;BME280;64877;50.994;13.650;2022-12-28T05:12:20;99915.63;;;4.92;64.36
76132;BME280;64877;50.994;13.650;2022-12-28T05:14:45;99927.22;;;4.93;63.74
76132;BME280;64877;50.994;13.650;2022-12-28T05:17:11;99915.47;;;4.96;63.68
76132;BME280;64877;50.994;13.650;2022-12-28T05:19:37;99907.13;;;5.02;63.33
76132;BME280;64877;50.994;13.650;2022-12-28T05:22:02;99902.88;;;5.15;62.91
76132;BME280;64877;50.994;13.650;2022-12-28T05:24:28;99899.81;;;5.05;63.71
76132;BME280;64877;50.994;13.650;2022-12-28T05:26:53;99885.56;;;5.05;63.24
76132;BME280;64877;50.994;13.650;2022-12-28T05:29:19;99880.22;;;5.05;63.57
76132;BME280;64877;50.994;13.650;2022-12-28T05:31:44;99874.53;;;5.11;63.31
76132;BME280;64877;50.994;13.650;2022-12-28T05:34:10;99882.97;;;5.03;63.01
76132;BME280;64877;50.994;13.650;2022-12-28T05:36:35;99880.69;;;5.13;62.46
76132;BME280;64877;50.994;13.650;2022-12-28T05:39:02;99866.25;;;5.15;62.77
76132;BME280;64877;50.994;13.650;2022-12-28T05:41:28;99874.38;;;5.14;62.29
76132;BME280;64877;50.994;13.650;2022-12-28T05:43:55;99871.38;;;5.20;62.00
76132;BME280;64877;50.994;13.650;2022-12-28T05:46:23;99874.28;;;5.15;62.58
76132;BME280;64877;50.994;13.650;2022-12-28T05:48:50;99883.19;;;5.16;62.62
76132;BME280;64877;50.994;13.650;2022-12-28T05:51:19;99874.38;;;5.14;62.03
76132;BME280;64877;50.994;13.650;2022-12-28T05:53:45;99871.84;;;5.11;62.19
76132;BME280;64877;50.994;13.650;2022-12-28T05:56:13;99865.41;;;5.15;62.19
76132;BME280;64877;50.994;13.650;2022-12-28T05:58:40;99863.34;;;5.20;61.88
76132;BME280;64877;50.994;13.650;2022-12-28T06:01:15;99864.22;;;5.21;61.93
76132;BME280;64877;50.994;13.650;2022-12-28T06:03:42;99870.59;;;5.18;62.19
76132;BME280;64877;50.994;13.650;2022-12-28T06:06:12;99879.56;;;5.17;62.26
76132;BME280;64877;50.994;13.650;2022-12-28T06:08:39;99872.34;;;5.19;62.45
76132;BME280;64877;50.994;13.650;2022-12-28T06:11:10;99873.09;;;5.21;62.32
76132;BME280;64877;50.994;13.650;2022-12-28T06:13:36;99868.38;;;5.26;62.08
76132;BME280;64877;50.994;13.650;2022-12-28T06:16:10;99864.59;;;5.30;61.46
76132;BME280;64877;50.994;13.650;2022-12-28T06:18:36;99866.84;;;5.22;61.80
76132;BME280;64877;50.994;13.650;2022-12-28T06:21:06;99860.97;;;5.31;61.17
76132;BME280;64877;50.994;13.650;2022-12-28T06:23:33;99867.75;;;5.21;61.96
76132;BME280;64877;50.994;13.650;2022-12-28T06:25:59;99865.06;;;5.21;62.59
76132;BME280;64877;50.994;13.650;2022-12-28T06:28:25;99849.97;;;5.20;62.76
76132;BME280;64877;50.994;13.650;2022-12-28T06:30:51;99850.34;;;5.30;61.89
76132;BME280;64877;50.994;13.650;2022-12-28T06:33:16;99852.50;;;5.23;61.99
76132;BME280;64877;50.994;13.650;2022-12-28T06:35:41;99853.75;;;5.33;62.70
76132;BME280;64877;50.994;13.650;2022-12-28T06:38:07;99854.59;;;5.34;62.35
76132;BME280;64877;50.994;13.650;2022-12-28T06:40:32;99838.53;;;5.34;62.11
76132;BME280;64877;50.994;13.650;2022-12-28T06:42:58;99837.00;;;5.45;61.03
76132;BME280;64877;50.994;13.650;2022-12-28T06:45:23;99835.28;;;5.44;61.60
76132;BME280;64877;50.994;13.650;2022-12-28T06:47:48;99842.28;;;5.47;61.82
76132;BME280;64877;50.994;13.650;2022-12-28T06:50:14;99847.38;;;5.52;61.17
76132;BME280;64877;50.994;13.650;2022-12-28T06:52:39;99843.78;;;5.53;61.37
76132;BME280;64877;50.994;13.650;2022-12-28T06:55:05;99838.22;;;5.56;61.56
76132;BME280;64877;50.994;13.650;2022-12-28T06:57:30;99841.16;;;5.51;61.51
76132;BME280;64877;50.994;13.650;2022-12-28T06:59:56;99840.06;;;5.55;61.91
76132;BME280;64877;50.994;13.650;2022-12-28T07:02:21;99840.16;;;5.54;61.60
76132;BME280;64877;50.994;13.650;2022-12-28T07:04:47;99843.59;;;5.56;61.86
76132;BME280;64877;50.994;13.650;2022-12-28T07:07:12;99834.09;;;5.66;61.48
76132;BME280;64877;50.994;13.650;2022-12-28T07:09:37;99826.06;;;5.66;61.61
76132;BME280;64877;50.994;13.650;2022-12-28T07:12:03;99829.53;;;5.68;61.90
76132;BME280;64877;50.994;13.650;2022-12-28T07:14:28;99833.19;;;5.67;62.24
76132;BME280;64877;50.994;13.650;2022-12-28T07:16:56;99826.69;;;5.71;61.87
76132;BME280;64877;50.994;13.650;2022-12-28T07:19:21;99815.31;;;5.83;61.78
76132;BME280;64877;50.994;13.650;2022-12-28T07:21:48;99805.84;;;5.76;61.83
76132;BME280;64877;50.994;13.650;2022-12-28T07:24:14;99806.16;;;5.87;62.13
76132;BME280;64877;50.994;13.650;2022-12-28T07:26:39;99798.16;;;5.86;62.19
76132;BME280;64877;50.994;13.650;2022-12-28T07:29:06;99796.19;;;5.89;62.38
76132;BME280;64877;50.994;13.650;2022-12-28T07:31:34;99793.19;;;5.95;62.06
76132;BME280;64877;50.994;13.650;2022-12-28T07:34:00;99776.75;;;6.02;61.91
76132;BME280;64877;50.994;13.650;2022-12-28T07:36:27;99769.88;;;5.98;62.92
76132;BME280;64877;50.994;13.650;2022-12-28T07:38:53;99770.78;;;5.96;62.81
76132;BME280;64877;50.994;13.650;2022-12-28T07:41:30;99770.63;;;6.00;63.34
76132;BME280;64877;50.994;13.650;2022-12-28T07:43:57;99767.78;;;6.03;62.83
76132;BME280;64877;50.994;13.650;2022-12-28T07:46:27;99763.34;;;6.02;63.19
76132;BME280;64877;50.994;13.650;2022-12-28T07:48:54;99764.16;;;6.04;63.04
76132;BME280;64877;50.994;13.650;2022-12-28T07:51:29;99776.59;;;6.05;63.06
76132;BME280;64877;50.994;13.650;2022-12-28T07:53:56;99769.16;;;6.10;63.00
76132;BME280;64877;50.994;13.650;2022-12-28T07:56:24;99765.50;;;6.11;63.62
76132;BME280;64877;50.994;13.650;2022-12-28T07:59:02;99764.16;;;6.04;64.28
76132;BME280;64877;50.994;13.650;2022-12-28T08:01:30;99762.22;;;6.06;64.46
76132;BME280;64877;50.994;13.650;2022-12-28T08:04:01;99761.31;;;6.07;64.34
76132;BME280;64877;50.994;13.650;2022-12-28T08:06:29;99767.59;;;6.06;64.32
76132;BME280;64877;50.994;13.650;2022-12-28T08:08:58;99753.16;;;6.08;64.63
76132;BME280;64877;50.994;13.650;2022-12-28T08:11:25;99753.06;;;6.10;65.18
76132;BME280;64877;50.994;13.650;2022-12-28T08:13:52;99748.13;;;6.18;64.61
76132;BME280;64877;50.994;13.650;2022-12-28T08:16:20;99748.88;;;6.20;64.79
76132;BME280;64877;50.994;13.650;2022-12-28T08:18:47;99747.75;;;6.24;65.08
76132;BME280;64877;50.994;13.650;2022-12-28T08:21:24;99743.16;;;6.26;64.66
76132;BME280;64877;50.994;13.650;2022-12-28T08:23:50;99736.78;;;6.29;64.92
76132;BME280;64877;50.994;13.650;2022-12-28T08:26:29;99734.69;;;6.34;65.56
76132;BME280;64877;50.994;13.650;2022-12-28T08:28:58;99724.81;;;6.34;66.15
76132;BME280;64877;50.994;13.650;2022-12-28T08:31:29;99723.31;;;6.44;67.43
76132;BME280;64877;50.994;13.650;2022-12-28T08:33:56;99720.66;;;6.59;66.94
76132;BME280;64877;50.994;13.650;2022-12-28T08:36:22;99717.22;;;6.57;64.67
76132;BME280;64877;50.994;13.650;2022-12-28T08:38:47;99713.66;;;6.56;65.68
76132;BME280;64877;50.994;13.650;2022-12-28T08:41:15;99716.25;;;6.58;65.73
76132;BME280;64877;50.994;13.650;2022-12-28T08:43:41;99703.22;;;6.66;65.39
76132;BME280;64877;50.994;13.650;2022-12-28T08:46:18;99702.19;;;6.68;65.04
76132;BME280;64877;50.994;13.650;2022-12-28T08:48:44;99699.44;;;6.84;64.88
76132;BME280;64877;50.994;13.650;2022-12-28T08:51:12;99701.34;;;6.82;65.26
76132;BME280;64877;50.994;13.650;2022-12-28T08:53:38;99696.56;;;6.87;65.52
76132;BME280;64877;50.994;13.650;2022-12-28T08:56:09;99697.63;;;6.99;65.43
76132;BME280;64877;50.994;13.650;2022-12-28T08:58:35;99691.50;;;7.11;64.79
76132;BME280;64877;50.994;13.650;2022-12-28T09:01:08;99686.03;;;7.13;64.39
76132;BME280;64877;50.994;13.650;2022-12-28T09:03:35;99683.69;;;7.21;64.83
76132;BME280;64877;50.994;13.650;2022-12-28T09:06:03;99677.16;;;7.25;64.36
76132;BME280;64877;50.994;13.650;2022-12-28T09:08:29;99676.22;;;7.26;64.02
76132;BME280;64877;50.994;13.650;2022-12-28T09:10:58;99672.94;;;7.35;64.48
76132;BME280;64877;50.994;13.650;2022-12-28T09:13:23;99655.88;;;7.36;63.85
76132;BME280;64877;50.994;13.650;2022-12-28T09:16:00;99668.91;;;7.42;64.35
76132;BME280;64877;50.994;13.650;2022-12-28T09:18:26;99655.94;;;7.49;64.00
76132;BME280;64877;50.994;13.650;2022-12-28T09:20:53;99647.13;;;7.74;63.47
76132;BME280;64877;50.994;13.650;2022-12-28T09:23:19;99650.75;;;8.00;63.28
76132;BME280;64877;50.994;13.650;2022-12-28T09:25:44;99644.13;;;8.06;62.36
76132;BME280;64877;50.994;13.650;2022-12-28T09:28:10;99640.16;;;8.11;62.82
76132;BME280;64877;50.994;13.650;2022-12-28T09:30:35;99662.22;;;8.29;62.33
76132;BME280;64877;50.994;13.650;2022-12-28T09:33:01;99635.59;;;8.39;61.89
76132;BME280;64877;50.994;13.650;2022-12-28T09:35:44;99650.03;;;8.50;61.80
76132;BME280;64877;50.994;13.650;2022-12-28T09:38:10;99639.81;;;8.56;61.38
76132;BME280;64877;50.994;13.650;2022-12-28T09:40:36;99642.91;;;8.49;61.39
76132;BME280;64877;50.994;13.650;2022-12-28T09:43:03;99629.34;;;8.38;62.01
76132;BME280;64877;50.994;13.650;2022-12-28T09:45:30;99622.03;;;8.40;62.15
76132;BME280;64877;50.994;13.650;2022-12-28T09:48:02;99632.59;;;8.43;61.95
76132;BME280;64877;50.994;13.650;2022-12-28T09:50:32;99626.66;;;8.64;61.05
76132;BME280;64877;50.994;13.650;2022-12-28T09:55:33;99614.94;;;8.77;61.35
76132;BME280;64877;50.994;13.650;2022-12-28T09:57:59;99623.97;;;8.89;60.46
76132;BME280;64877;50.994;13.650;2022-12-28T10:00:41;99624.28;;;8.85;60.39
76132;BME280;64877;50.994;13.650;2022-12-28T10:03:17;99616.22;;;8.85;61.24
76132;BME280;64877;50.994;13.650;2022-12-28T10:05:43;99612.03;;;8.68;61.29
76132;BME280;64877;50.994;13.650;2022-12-28T10:08:12;99601.78;;;8.60;61.72
76132;BME280;64877;50.994;13.650;2022-12-28T10:10:39;99610.22;;;8.56;61.49
76132;BME280;64877;50.994;13.650;2022-12-28T10:13:16;99607.00;;;8.50;62.17
76132;BME280;64877;50.994;13.650;2022-12-28T10:15:43;99590.06;;;8.48;61.88
76132;BME280;64877;50.994;13.650;2022-12-28T10:18:12;99592.22;;;8.43;62.64
76132;BME280;64877;50.994;13.650;2022-12-28T10:20:39;99588.69;;;8.56;62.10
76132;BME280;64877;50.994;13.650;2022-12-28T10:23:12;99583.94;;;8.72;61.73
76132;BME280;64877;50.994;13.650;2022-12-28T10:25:40;99573.56;;;8.91;60.93
76132;BME280;64877;50.994;13.650;2022-12-28T10:28:07;99584.78;;;8.85;61.49
76132;BME280;64877;50.994;13.650;2022-12-28T10:33:33;99576.78;;;8.96;61.05
76132;BME280;64877;50.994;13.650;2022-12-28T10:36:02;99581.84;;;9.01;61.05
76132;BME280;64877;50.994;13.650;2022-12-28T10:38:30;99572.22;;;9.10;60.99
76132;BME280;64877;50.994;13.650;2022-12-28T10:41:02;99566.91;;;9.21;60.66
76132;BME280;64877;50.994;13.650;2022-12-28T10:43:34;99562.31;;;9.10;61.09
76132;BME280;64877;50.994;13.650;2022-12-28T10:46:02;99559.50;;;9.12;60.93
76132;BME280;64877;50.994;13.650;2022-12-28T10:48:37;99552.50;;;9.09;60.76
76132;BME280;64877;50.994;13.650;2022-12-28T10:53:42;99548.47;;;9.15;60.46
76132;BME280;64877;50.994;13.650;2022-12-28T10:58:45;99544.66;;;9.06;61.00
76132;BME280;64877;50.994;13.650;2022-12-28T11:06:09;99546.63;;;8.91;61.54
76132;BME280;64877;50.994;13.650;2022-12-28T11:08:35;99544.91;;;8.90;61.29
76132;BME280;64877;50.994;13.650;2022-12-28T11:11:01;99528.00;;;8.88;61.93
76132;BME280;64877;50.994;13.650;2022-12-28T11:13:26;99530.34;;;8.93;62.03
76132;BME280;64877;50.994;13.650;2022-12-28T11:15:52;99529.81;;;8.88;62.48
76132;BME280;64877;50.994;13.650;2022-12-28T11:18:18;99519.91;;;8.88;62.42
76132;BME280;64877;50.994;13.650;2022-12-28T11:20:47;99510.84;;;8.89;62.55
76132;BME280;64877;50.994;13.650;2022-12-28T11:23:24;99517.34;;;8.87;62.46
76132;BME280;64877;50.994;13.650;2022-12-28T11:25:50;99510.00;;;8.89;61.87
76132;BME280;64877;50.994;13.650;2022-12-28T11:28:21;99501.84;;;8.90;62.59
76132;BME280;64877;50.994;13.650;2022-12-28T11:30:47;99495.69;;;8.88;62.46
76132;BME280;64877;50.994;13.650;2022-12-28T11:33:34;99508.94;;;8.91;62.71
76132;BME280;64877;50.994;13.650;2022-12-28T11:36:02;99502.78;;;8.89;62.22
76132;BME280;64877;50.994;13.650;2022-12-28T11:38:48;99507.31;;;8.89;62.86
76132;BME280;64877;50.994;13.650;2022-12-28T11:43:50;99498.38;;;8.88;62.71
76132;BME280;64877;50.994;13.650;2022-12-28T11:51:44;99488.06;;;8.82;62.73
76132;BME280;64877;50.994;13.650;2022-12-28T11:54:38;99493.44;;;8.82;62.42
76132;BME280;64877;50.994;13.650;2022-12-28T11:57:38;99488.25;;;8.79;62.79
76132;BME280;64877;50.994;13.650;2022-12-28T12:00:48;99490.88;;;8.80;62.71
76132;BME280;64877;50.994;13.650;2022-12-28T12:03:13;99487.28;;;8.80;62.99
76132;BME280;64877;50.994;13.650;2022-12-28T12:10:47;99481.16;;;8.78;63.15
76132;BME280;64877;50.994;13.650;2022-12-28T12:15:54;99459.84;;;8.75;63.06
76132;BME280;64877;50.994;13.650;2022-12-28T12:18:26;99466.13;;;8.75;62.62
76132;BME280;64877;50.994;13.650;2022-12-28T12:21:05;99465.00;;;8.78;62.68
76132;BME280;64877;50.994;13.650;2022-12-28T12:23:44;99469.41;;;8.79;62.87
76132;BME280;64877;50.994;13.650;2022-12-28T12:26:23;99460.91;;;8.85;62.02
76132;BME280;64877;50.994;13.650;2022-12-28T12:28:53;99454.03;;;8.81;62.16
76132;BME280;64877;50.994;13.650;2022-12-28T12:31:36;99462.09;;;8.81;62.23
76132;BME280;64877;50.994;13.650;2022-12-28T12:34:23;99452.28;;;8.80;61.35
76132;BME280;64877;50.994;13.650;2022-12-28T12:36:56;99454.03;;;8.81;61.58
76132;BME280;64877;50.994;13.650;2022-12-28T12:50:16;99455.75;;;8.82;62.57
76132;BME280;64877;50.994;13.650;2022-12-28T13:03:46;99447.97;;;8.90;61.30
76132;BME280;64877;50.994;13.650;2022-12-28T13:06:24;99450.41;;;8.93;61.87
76132;BME280;64877;50.994;13.650;2022-12-28T13:08:52;99451.19;;;8.95;61.45
76132;BME280;64877;50.994;13.650;2022-12-28T13:11:19;99447.50;;;8.96;61.53
76132;BME280;64877;50.994;13.650;2022-12-28T13:13:48;99454.38;;;9.00;61.31
76132;BME280;64877;50.994;13.650;2022-12-28T13:16:17;99452.44;;;9.02;61.37
76132;BME280;64877;50.994;13.650;2022-12-28T13:18:57;99450.72;;;9.01;61.77
76132;BME280;64877;50.994;13.650;2022-12-28T13:21:25;99452.22;;;9.05;61.44
76132;BME280;64877;50.994;13.650;2022-12-28T13:23:51;99447.69;;;9.06;61.42
76132;BME280;64877;50.994;13.650;2022-12-28T13:26:23;99461.03;;;9.07;61.01
76132;BME280;64877;50.994;13.650;2022-12-28T13:28:56;99447.91;;;9.03;61.45
76132;BME280;64877;50.994;13.650;2022-12-28T13:31:37;99444.47;;;9.01;61.33
76132;BME280;64877;50.994;13.650;2022-12-28T13:34:13;99443.84;;;8.97;61.62
76132;BME280;64877;50.994;13.650;2022-12-28T13:36:53;99444.91;;;8.95;62.19
76132;BME280;64877;50.994;13.650;2022-12-28T13:39:20;99444.91;;;8.95;62.14
76132;BME280;64877;50.994;13.650;2022-12-28T13:41:51;99436.09;;;8.93;62.29
76132;BME280;64877;50.994;13.650;2022-12-28T13:44:39;99438.66;;;8.94;62.36
76132;BME280;64877;50.994;13.650;2022-12-28T13:49:43;99446.66;;;8.96;62.43
76132;BME280;64877;50.994;13.650;2022-12-28T13:52:15;99448.38;;;8.97;62.71
76132;BME280;64877;50.994;13.650;2022-12-28T13:54:45;99446.41;;;8.99;62.61
76132;BME280;64877;50.994;13.650;2022-12-28T13:57:13;99447.50;;;8.96;62.92
76132;BME280;64877;50.994;13.650;2022-12-28T13:59:40;99442.13;;;8.96;62.84
76132;BME280;64877;50.994;13.650;2022-12-28T14:02:06;99437.59;;;8.97;62.84
76132;BME280;64877;50.994;13.650;2022-12-28T14:04:31;99442.97;;;8.97;62.54
76132;BME280;64877;50.994;13.650;2022-12-28T14:06:58;99438.78;;;8.93;62.57
76132;BME280;64877;50.994;13.650;2022-12-28T14:09:24;99438.31;;;8.99;62.80
76132;BME280;64877;50.994;13.650;2022-12-28T14:11:49;99444.16;;;8.93;62.65
76132;BME280;64877;50.994;13.650;2022-12-28T14:14:15;99436.81;;;8.95;62.38
76132;BME280;64877;50.994;13.650;2022-12-28T14:16:41;99439.88;;;8.90;62.46
76132;BME280;64877;50.994;13.650;2022-12-28T14:19:07;99447.72;;;8.93;62.86
76132;BME280;64877;50.994;13.650;2022-12-28T14:21:38;99447.00;;;8.91;63.00
76132;BME280;64877;50.994;13.650;2022-12-28T14:24:08;99440.75;;;8.91;62.96
76132;BME280;64877;50.994;13.650;2022-12-28T14:26:36;99435.44;;;8.89;63.25
76132;BME280;64877;50.994;13.650;2022-12-28T14:29:10;99423.81;;;8.89;62.95
76132;BME280;64877;50.994;13.650;2022-12-28T14:31:37;99430.31;;;8.86;62.76
76132;BME280;64877;50.994;13.650;2022-12-28T14:34:05;99420.56;;;8.96;63.02
76132;BME280;64877;50.994;13.650;2022-12-28T14:38:58;99424.69;;;8.89;63.01
76132;BME280;64877;50.994;13.650;2022-12-28T14:41:29;99441.09;;;8.86;63.11